Time;durP1;ratioP1;P1;durP2;ratioP2;P2;SDS_P1;SDS_P2;PMS_P1;PMS_P2;Temp;Humidity;BMP_temperature;BMP_pressure;BME280_temperature;BME280_humidity;BME280_pressure;Samples;Min_cycle;Max_cycle;Signal;HPM_P1;HPM_P2
2022/03/01 00:01:23;;;;;;;;;;;2.20;99.90;;;;;;5106306;28;20457;-79
2022/03/01 00:03:49;;;;;;;;;;;2.20;99.90;;;;;;5098878;28;19924;-77
2022/03/01 00:06:16;;;;;;;;;;;2.20;99.90;;;;;;5103326;28;19924;-79
2022/03/01 00:08:42;;;;;;;;;;;2.10;99.90;;;;;;5096312;28;19935;-79
2022/03/01 00:11:09;;;;;;;;;;;2.10;99.90;;;;;;5104797;28;19931;-79
2022/03/01 00:13:36;;;;;;;;;;;2.10;99.90;;;;;;5102381;28;20030;-79
2022/03/01 00:16:03;;;;;;;;;;;2.10;99.90;;;;;;5105970;28;19928;-83
2022/03/01 00:18:29;;;;;;;;;;;2.10;99.90;;;;;;5103994;28;19924;-79
2022/03/01 00:20:56;;;;;;;;;;;2.10;99.90;;;;;;5106869;28;20340;-80
2022/03/01 00:23:22;;;;;;;;;;;2.10;99.90;;;;;;5104906;28;19924;-79
2022/03/01 00:25:49;;;;;;;;;;;2.10;99.90;;;;;;5106719;28;19923;-79
2022/03/01 00:28:15;;;;;;;;;;;2.00;99.90;;;;;;5100373;28;19928;-79
2022/03/01 00:30:42;;;;;;;;;;;2.00;99.90;;;;;;5104506;28;19923;-79
2022/03/01 00:33:08;;;;;;;;;;;2.00;99.90;;;;;;5098913;28;19931;-78
2022/03/01 00:35:35;;;;;;;;;;;2.00;99.90;;;;;;5104811;28;19932;-79
2022/03/01 00:38:02;;;;;;;;;;;2.00;99.90;;;;;;5101936;28;19927;-79
2022/03/01 00:40:28;;;;;;;;;;;1.90;99.90;;;;;;5099764;28;19924;-79
2022/03/01 00:42:55;;;;;;;;;;;1.90;99.90;;;;;;5097710;28;19924;-78
2022/03/01 00:45:21;;;;;;;;;;;1.90;99.90;;;;;;5097371;28;19931;-77
2022/03/01 00:47:48;;;;;;;;;;;1.80;99.90;;;;;;5102676;28;19931;-79
2022/03/01 00:50:14;;;;;;;;;;;1.80;99.90;;;;;;5109409;28;20351;-77
2022/03/01 00:52:41;;;;;;;;;;;1.80;99.90;;;;;;5103760;28;19924;-79
2022/03/01 00:55:07;;;;;;;;;;;1.80;99.90;;;;;;5106308;28;19928;-80
2022/03/01 00:57:34;;;;;;;;;;;1.80;99.90;;;;;;5107096;28;19967;-78
2022/03/01 01:00:00;;;;;;;;;;;1.70;99.90;;;;;;5093971;28;19931;-79
2022/03/01 01:02:28;;;;;;;;;;;1.70;99.90;;;;;;5106460;28;19928;-79
2022/03/01 01:04:54;;;;;;;;;;;1.70;99.90;;;;;;5103658;28;20419;-79
2022/03/01 01:07:21;;;;;;;;;;;1.60;99.90;;;;;;5107221;28;19924;-79
2022/03/01 01:09:48;;;;;;;;;;;1.60;99.90;;;;;;5107580;28;19978;-79
2022/03/01 01:12:14;;;;;;;;;;;1.70;99.90;;;;;;5102890;28;19924;-79
2022/03/01 01:14:41;;;;;;;;;;;1.70;99.90;;;;;;5108701;28;19931;-80
2022/03/01 01:17:07;;;;;;;;;;;1.70;99.90;;;;;;5103763;28;19947;-83
2022/03/01 01:19:34;;;;;;;;;;;1.60;99.90;;;;;;5111003;28;19927;-79
2022/03/01 01:24:45;;;;;;;;;;;1.60;99.90;;;;;;5109218;28;19931;-79
2022/03/01 01:27:11;;;;;;;;;;;1.60;99.90;;;;;;5110392;28;19972;-79
2022/03/01 01:29:38;;;;;;;;;;;1.60;99.90;;;;;;5108018;28;19923;-79
2022/03/01 01:32:04;;;;;;;;;;;1.60;99.90;;;;;;5106381;28;19924;-77
2022/03/01 01:34:31;;;;;;;;;;;1.60;99.90;;;;;;5104767;28;19923;-79
2022/03/01 01:36:57;;;;;;;;;;;1.60;99.90;;;;;;5109387;28;19924;-79
2022/03/01 01:39:24;;;;;;;;;;;1.50;99.90;;;;;;5103722;28;20359;-79
2022/03/01 01:41:51;;;;;;;;;;;1.50;99.90;;;;;;5108991;28;19924;-78
2022/03/01 01:44:17;;;;;;;;;;;1.50;99.90;;;;;;5104940;28;19930;-79
2022/03/01 01:46:44;;;;;;;;;;;1.50;99.90;;;;;;5106942;28;19934;-80
2022/03/01 01:49:10;;;;;;;;;;;1.50;99.90;;;;;;5101015;28;19923;-80
2022/03/01 01:51:37;;;;;;;;;;;1.50;99.90;;;;;;5106359;28;19947;-77
2022/03/01 01:54:04;;;;;;;;;;;1.40;99.90;;;;;;5127327;27;19932;-78
2022/03/01 01:56:30;;;;;;;;;;;1.50;99.90;;;;;;5092770;28;19927;-79
2022/03/01 01:58:57;;;;;;;;;;;1.40;99.90;;;;;;5100032;28;19936;-79
2022/03/01 02:01:23;;;;;;;;;;;1.50;99.90;;;;;;5106087;28;19935;-79
2022/03/01 02:03:50;;;;;;;;;;;1.40;99.90;;;;;;5111040;28;19924;-79
2022/03/01 02:06:16;;;;;;;;;;;1.40;99.90;;;;;;5108106;28;19924;-79
2022/03/01 02:08:43;;;;;;;;;;;1.30;99.90;;;;;;5104253;28;19935;-79
2022/03/01 02:11:09;;;;;;;;;;;1.30;99.90;;;;;;5111864;28;19924;-83
2022/03/01 02:13:36;;;;;;;;;;;1.30;99.90;;;;;;5109883;28;19924;-77
2022/03/01 02:16:03;;;;;;;;;;;1.30;99.90;;;;;;5102910;28;20677;-78
2022/03/01 02:18:29;;;;;;;;;;;1.20;99.90;;;;;;5106551;28;20775;-79
2022/03/01 02:20:56;;;;;;;;;;;1.20;99.90;;;;;;5097851;28;19923;-78
2022/03/01 02:23:22;;;;;;;;;;;1.20;99.90;;;;;;5107446;28;19924;-78
2022/03/01 02:25:49;;;;;;;;;;;1.20;99.90;;;;;;5103866;28;19931;-78
2022/03/01 02:28:16;;;;;;;;;;;1.20;99.90;;;;;;5099371;28;19986;-78
2022/03/01 02:30:43;;;;;;;;;;;1.20;99.90;;;;;;5104986;28;19932;-77
2022/03/01 02:33:09;;;;;;;;;;;1.20;99.90;;;;;;5104777;28;19924;-78
2022/03/01 02:35:36;;;;;;;;;;;1.20;99.90;;;;;;5102450;28;20424;-78
2022/03/01 02:38:03;;;;;;;;;;;1.20;99.90;;;;;;5099981;28;19924;-78
2022/03/01 02:40:30;;;;;;;;;;;1.20;99.90;;;;;;5102703;28;19931;-78
2022/03/01 02:42:56;;;;;;;;;;;1.20;99.90;;;;;;5095348;28;19931;-78
2022/03/01 02:45:23;;;;;;;;;;;1.20;99.90;;;;;;5106928;28;19949;-77
2022/03/01 02:47:49;;;;;;;;;;;1.10;99.90;;;;;;5107553;28;19924;-78
2022/03/01 02:50:16;;;;;;;;;;;1.10;99.90;;;;;;5107222;28;20006;-78
2022/03/01 02:52:43;;;;;;;;;;;1.10;99.90;;;;;;5107106;28;19946;-78
2022/03/01 02:55:09;;;;;;;;;;;1.10;99.90;;;;;;5099150;28;19923;-79
2022/03/01 02:57:36;;;;;;;;;;;1.10;99.90;;;;;;5101061;28;19927;-77
2022/03/01 03:00:02;;;;;;;;;;;1.00;99.90;;;;;;5109135;28;19924;-78
2022/03/01 03:02:29;;;;;;;;;;;1.00;99.90;;;;;;5103064;28;20085;-78
2022/03/01 03:04:55;;;;;;;;;;;1.00;99.90;;;;;;5095247;28;19928;-78
2022/03/01 03:07:22;;;;;;;;;;;1.00;99.90;;;;;;5095960;28;19924;-78
2022/03/01 03:09:49;;;;;;;;;;;1.00;99.90;;;;;;5091990;28;19959;-78
2022/03/01 03:12:15;;;;;;;;;;;0.90;99.90;;;;;;5107225;28;19935;-81
2022/03/01 03:14:42;;;;;;;;;;;0.90;99.90;;;;;;5102876;28;20006;-78
2022/03/01 03:17:08;;;;;;;;;;;0.90;99.90;;;;;;5109341;28;19931;-78
2022/03/01 03:19:36;;;;;;;;;;;0.90;99.90;;;;;;5101469;28;19936;-77
2022/03/01 03:22:03;;;;;;;;;;;1.00;99.90;;;;;;5110369;28;19923;-78
2022/03/01 03:24:29;;;;;;;;;;;0.90;99.90;;;;;;5104400;28;19924;-78
2022/03/01 03:26:56;;;;;;;;;;;0.90;99.90;;;;;;5104360;28;19928;-79
2022/03/01 03:29:22;;;;;;;;;;;1.00;99.90;;;;;;5107477;28;19931;-79
2022/03/01 03:31:49;;;;;;;;;;;1.00;99.90;;;;;;5106967;28;19924;-79
2022/03/01 03:34:15;;;;;;;;;;;0.90;99.90;;;;;;5098711;28;19942;-81
2022/03/01 03:36:42;;;;;;;;;;;0.90;99.90;;;;;;5098479;28;19923;-79
2022/03/01 03:39:09;;;;;;;;;;;0.90;99.90;;;;;;5095611;28;20386;-79
2022/03/01 03:41:35;;;;;;;;;;;1.00;99.90;;;;;;5107201;28;19928;-76
2022/03/01 03:44:02;;;;;;;;;;;0.90;99.90;;;;;;5101564;28;19956;-77
2022/03/01 03:46:28;;;;;;;;;;;0.90;99.90;;;;;;5107056;28;19924;-78
2022/03/01 03:48:55;;;;;;;;;;;0.80;99.90;;;;;;5111982;28;19934;-78
2022/03/01 03:51:23;;;;;;;;;;;0.70;99.90;;;;;;5109222;28;19924;-77
2022/03/01 03:53:49;;;;;;;;;;;0.70;99.90;;;;;;5098282;28;19970;-78
2022/03/01 03:56:16;;;;;;;;;;;0.70;99.90;;;;;;5105069;28;19923;-77
2022/03/01 03:58:43;;;;;;;;;;;0.70;99.90;;;;;;5097646;28;20019;-78
2022/03/01 04:01:09;;;;;;;;;;;0.60;99.90;;;;;;5096190;28;19931;-78
2022/03/01 04:03:36;;;;;;;;;;;0.70;99.90;;;;;;5102954;28;19992;-78
2022/03/01 04:06:03;;;;;;;;;;;0.60;99.90;;;;;;5101097;28;19967;-78
2022/03/01 04:08:30;;;;;;;;;;;0.70;99.90;;;;;;5105102;28;19923;-78
2022/03/01 04:10:57;;;;;;;;;;;0.70;99.90;;;;;;5107291;28;20003;-78
2022/03/01 04:13:24;;;;;;;;;;;0.70;99.90;;;;;;5104131;28;20348;-78
2022/03/01 04:15:50;;;;;;;;;;;0.70;99.90;;;;;;5109842;28;19924;-76
2022/03/01 04:18:17;;;;;;;;;;;0.70;99.90;;;;;;5105908;28;19924;-78
2022/03/01 04:20:44;;;;;;;;;;;0.70;99.90;;;;;;5097915;28;20399;-78
2022/03/01 04:23:10;;;;;;;;;;;0.70;99.90;;;;;;5107207;28;19967;-77
2022/03/01 04:25:37;;;;;;;;;;;0.70;99.90;;;;;;5114825;28;19923;-77
2022/03/01 04:28:04;;;;;;;;;;;0.70;99.90;;;;;;5113921;28;19982;-77
2022/03/01 04:30:30;;;;;;;;;;;0.70;99.90;;;;;;5109867;28;19947;-77
2022/03/01 04:32:57;;;;;;;;;;;0.80;99.90;;;;;;5095222;28;20279;-76
2022/03/01 04:35:23;;;;;;;;;;;0.80;99.90;;;;;;5127940;27;19924;-78
2022/03/01 04:37:50;;;;;;;;;;;0.80;99.90;;;;;;5107863;28;20367;-77
2022/03/01 04:40:18;;;;;;;;;;;0.80;99.90;;;;;;5106372;28;20373;-77
2022/03/01 04:42:44;;;;;;;;;;;0.80;99.90;;;;;;5101392;28;19979;-77
2022/03/01 04:45:11;;;;;;;;;;;0.80;99.90;;;;;;5113549;28;19988;-77
2022/03/01 04:47:37;;;;;;;;;;;0.80;99.90;;;;;;5101282;28;20291;-77
2022/03/01 04:50:04;;;;;;;;;;;0.80;99.90;;;;;;5108946;28;20372;-77
2022/03/01 04:52:30;;;;;;;;;;;0.80;99.90;;;;;;5097111;28;20271;-80
2022/03/01 04:54:57;;;;;;;;;;;0.80;99.90;;;;;;5107913;28;19931;-77
2022/03/01 04:57:23;;;;;;;;;;;0.90;99.90;;;;;;5111991;28;19927;-81
2022/03/01 04:59:50;;;;;;;;;;;0.80;99.90;;;;;;5113632;28;19939;-77
2022/03/01 05:02:16;;;;;;;;;;;0.80;99.90;;;;;;5106454;28;19924;-76
2022/03/01 05:04:43;;;;;;;;;;;0.80;99.90;;;;;;5111712;28;19924;-77
2022/03/01 05:07:09;;;;;;;;;;;0.80;99.90;;;;;;5108399;28;19924;-77
2022/03/01 05:09:36;;;;;;;;;;;0.80;99.90;;;;;;5101343;28;20432;-78
2022/03/01 05:12:02;;;;;;;;;;;0.80;99.90;;;;;;5107667;28;19924;-78
2022/03/01 05:14:29;;;;;;;;;;;0.80;99.90;;;;;;5103662;28;19924;-78
2022/03/01 05:16:55;;;;;;;;;;;0.80;99.90;;;;;;5106721;28;19964;-77
2022/03/01 05:19:22;;;;;;;;;;;0.80;99.90;;;;;;5104993;28;19924;-77
2022/03/01 05:21:49;;;;;;;;;;;0.80;99.90;;;;;;5106579;28;20279;-75
2022/03/01 05:24:15;;;;;;;;;;;0.80;99.90;;;;;;5106195;28;19924;-77
2022/03/01 05:26:42;;;;;;;;;;;0.80;99.90;;;;;;5099826;28;19935;-75
2022/03/01 05:29:09;;;;;;;;;;;0.80;99.90;;;;;;5111230;28;20003;-77
2022/03/01 05:31:35;;;;;;;;;;;0.80;99.90;;;;;;5111961;28;20014;-77
2022/03/01 05:34:02;;;;;;;;;;;0.80;99.90;;;;;;5108645;28;19924;-77
2022/03/01 05:36:28;;;;;;;;;;;0.80;99.90;;;;;;5107968;28;19923;-78
2022/03/01 05:38:55;;;;;;;;;;;0.80;99.90;;;;;;5106501;28;19924;-77
2022/03/01 05:41:24;;;;;;;;;;;0.90;99.90;;;;;;5101864;28;19931;-77
2022/03/01 05:43:50;;;;;;;;;;;0.90;99.90;;;;;;5102601;28;19935;-77
2022/03/01 05:46:17;;;;;;;;;;;0.90;99.90;;;;;;5109030;28;19924;-77
2022/03/01 05:48:43;;;;;;;;;;;0.90;99.90;;;;;;5110344;28;19927;-77
2022/03/01 05:51:10;;;;;;;;;;;0.90;99.90;;;;;;5095991;28;19924;-77
2022/03/01 05:53:36;;;;;;;;;;;0.90;99.90;;;;;;5105449;28;19927;-77
2022/03/01 05:56:03;;;;;;;;;;;0.90;99.90;;;;;;5107583;28;19923;-77
2022/03/01 05:58:29;;;;;;;;;;;0.90;99.90;;;;;;5101930;28;19924;-80
2022/03/01 06:00:56;;;;;;;;;;;0.90;99.90;;;;;;5112261;28;19927;-78
2022/03/01 06:03:22;;;;;;;;;;;0.90;99.90;;;;;;5099895;28;19924;-77
2022/03/01 06:05:49;;;;;;;;;;;1.00;99.90;;;;;;5102375;28;19962;-77
2022/03/01 06:08:15;;;;;;;;;;;1.00;99.90;;;;;;5105718;28;19928;-78
2022/03/01 06:10:42;;;;;;;;;;;0.90;99.90;;;;;;5104952;28;20047;-78
2022/03/01 06:13:08;;;;;;;;;;;1.00;99.90;;;;;;5097646;28;19935;-79
2022/03/01 06:15:35;;;;;;;;;;;1.00;99.90;;;;;;5105588;28;19924;-77
2022/03/01 06:18:02;;;;;;;;;;;1.00;99.90;;;;;;5093632;28;19931;-79
2022/03/01 06:20:28;;;;;;;;;;;1.00;99.90;;;;;;5094528;28;19924;-79
2022/03/01 06:22:55;;;;;;;;;;;1.00;99.90;;;;;;5094958;28;19924;-79
2022/03/01 06:25:21;;;;;;;;;;;1.00;99.90;;;;;;5092753;28;19932;-78
2022/03/01 06:27:48;;;;;;;;;;;1.00;99.90;;;;;;5094788;28;19924;-79
2022/03/01 06:30:14;;;;;;;;;;;1.00;99.90;;;;;;5092477;28;19928;-79
2022/03/01 06:32:41;;;;;;;;;;;1.00;99.90;;;;;;5093581;28;19947;-79
2022/03/01 06:35:07;;;;;;;;;;;1.00;99.90;;;;;;5097238;28;20321;-79
2022/03/01 06:37:34;;;;;;;;;;;1.00;99.90;;;;;;5094378;28;19924;-79
2022/03/01 06:40:00;;;;;;;;;;;1.00;99.90;;;;;;5096722;28;19931;-79
2022/03/01 06:42:27;;;;;;;;;;;0.90;99.90;;;;;;5093360;28;19939;-79
2022/03/01 06:44:53;;;;;;;;;;;0.90;99.90;;;;;;5095488;28;19981;-79
2022/03/01 06:47:20;;;;;;;;;;;1.00;99.90;;;;;;5096674;28;19924;-78
2022/03/01 06:49:47;;;;;;;;;;;1.00;99.90;;;;;;5093372;28;20287;-79
2022/03/01 06:52:13;;;;;;;;;;;1.00;99.90;;;;;;5093332;28;20360;-79
2022/03/01 06:54:40;;;;;;;;;;;1.00;99.90;;;;;;5095879;28;19928;-79
2022/03/01 06:57:06;;;;;;;;;;;1.00;99.90;;;;;;5097267;28;19927;-79
2022/03/01 06:59:33;;;;;;;;;;;1.10;99.90;;;;;;5093032;28;19935;-81
2022/03/01 07:01:59;;;;;;;;;;;1.10;99.90;;;;;;5093462;28;19924;-79
2022/03/01 07:04:26;;;;;;;;;;;1.10;99.90;;;;;;5091895;28;20019;-79
2022/03/01 07:06:52;;;;;;;;;;;1.20;99.90;;;;;;5097027;28;20026;-79
2022/03/01 07:09:19;;;;;;;;;;;1.20;99.90;;;;;;5092119;28;19924;-79
2022/03/01 07:11:46;;;;;;;;;;;1.20;99.90;;;;;;5090141;28;19924;-79
2022/03/01 07:14:12;;;;;;;;;;;1.30;99.90;;;;;;5105558;28;19931;-78
2022/03/01 07:16:39;;;;;;;;;;;1.40;99.90;;;;;;5091312;28;19924;-79
2022/03/01 07:19:05;;;;;;;;;;;1.40;99.90;;;;;;5098423;28;19924;-79
2022/03/01 07:21:32;;;;;;;;;;;1.50;99.90;;;;;;5103634;28;20333;-79
2022/03/01 07:23:58;;;;;;;;;;;1.60;99.90;;;;;;5092338;28;19927;-79
2022/03/01 07:26:25;;;;;;;;;;;1.70;99.90;;;;;;5094365;28;19924;-79
2022/03/01 07:28:51;;;;;;;;;;;1.80;99.90;;;;;;5092598;28;19954;-79
2022/03/01 07:31:18;;;;;;;;;;;1.80;99.90;;;;;;5093625;28;19924;-79
2022/03/01 07:33:45;;;;;;;;;;;1.90;99.90;;;;;;5091688;28;19974;-78
2022/03/01 07:36:11;;;;;;;;;;;2.00;99.90;;;;;;5094696;28;19938;-78
2022/03/01 07:38:38;;;;;;;;;;;2.00;99.90;;;;;;5094667;28;20359;-80
2022/03/01 07:41:04;;;;;;;;;;;2.00;99.90;;;;;;5095922;28;19924;-78
2022/03/01 07:43:31;;;;;;;;;;;2.10;99.90;;;;;;5092762;28;19924;-78
2022/03/01 07:45:57;;;;;;;;;;;2.10;99.90;;;;;;5096702;28;19923;-78
2022/03/01 07:48:24;;;;;;;;;;;2.10;99.90;;;;;;5095603;28;19924;-79
2022/03/01 07:50:50;;;;;;;;;;;2.20;99.90;;;;;;5094605;28;19931;-78
2022/03/01 07:53:17;;;;;;;;;;;2.30;99.90;;;;;;5092808;28;19928;-78
2022/03/01 07:55:44;;;;;;;;;;;2.40;99.90;;;;;;5092991;28;20427;-80
2022/03/01 07:58:10;;;;;;;;;;;2.40;99.90;;;;;;5096238;28;20360;-78
2022/03/01 08:00:37;;;;;;;;;;;2.50;99.90;;;;;;5096108;28;19928;-80
2022/03/01 08:03:04;;;;;;;;;;;2.60;99.90;;;;;;5095249;28;19924;-78
2022/03/01 08:05:30;;;;;;;;;;;2.70;99.90;;;;;;5097461;28;19931;-78
2022/03/01 08:07:57;;;;;;;;;;;2.70;99.90;;;;;;5094631;28;19940;-78
2022/03/01 08:10:23;;;;;;;;;;;2.90;99.90;;;;;;5097987;28;19924;-78
2022/03/01 08:12:50;;;;;;;;;;;3.00;99.90;;;;;;5109652;28;19924;-79
2022/03/01 08:15:16;;;;;;;;;;;3.10;99.90;;;;;;5100225;28;19928;-78
2022/03/01 08:17:43;;;;;;;;;;;3.20;99.90;;;;;;5095476;28;19925;-78
2022/03/01 08:20:09;;;;;;;;;;;3.30;99.90;;;;;;5095662;28;19924;-79
2022/03/01 08:22:36;;;;;;;;;;;3.40;99.90;;;;;;5095470;28;19924;-78
2022/03/01 08:25:02;;;;;;;;;;;3.40;99.90;;;;;;5102267;28;19951;-78
2022/03/01 08:27:29;;;;;;;;;;;3.50;99.90;;;;;;5101468;28;20285;-78
2022/03/01 08:29:56;;;;;;;;;;;3.50;99.90;;;;;;5098791;28;19946;-77
2022/03/01 08:32:22;;;;;;;;;;;3.60;99.90;;;;;;5103911;28;19924;-78
2022/03/01 08:34:49;;;;;;;;;;;3.60;99.90;;;;;;5100356;28;19931;-79
2022/03/01 08:37:15;;;;;;;;;;;3.60;99.90;;;;;;5102587;28;20359;-78
2022/03/01 08:39:42;;;;;;;;;;;3.60;99.90;;;;;;5097270;28;19924;-81
2022/03/01 08:42:08;;;;;;;;;;;3.70;99.90;;;;;;5096422;28;20393;-81
2022/03/01 08:44:35;;;;;;;;;;;3.70;99.90;;;;;;5100587;28;20355;-78
2022/03/01 08:47:01;;;;;;;;;;;3.70;99.90;;;;;;5096282;28;20387;-79
2022/03/01 08:49:28;;;;;;;;;;;3.70;99.90;;;;;;5098086;28;19932;-78
2022/03/01 08:51:54;;;;;;;;;;;3.80;99.90;;;;;;5095501;28;20311;-78
2022/03/01 08:54:22;;;;;;;;;;;3.90;99.90;;;;;;5095891;28;20283;-78
2022/03/01 08:56:49;;;;;;;;;;;3.80;99.90;;;;;;5098334;28;19975;-78
2022/03/01 08:59:15;;;;;;;;;;;3.90;99.90;;;;;;5096239;28;19924;-78
2022/03/01 09:01:42;;;;;;;;;;;3.90;99.90;;;;;;5096968;28;19923;-81
2022/03/01 09:04:08;;;;;;;;;;;3.90;99.90;;;;;;5095333;28;19930;-78
2022/03/01 09:06:35;;;;;;;;;;;4.00;99.90;;;;;;5099247;28;19932;-78
2022/03/01 09:09:01;;;;;;;;;;;4.00;99.90;;;;;;5096981;28;19924;-78
2022/03/01 09:11:28;;;;;;;;;;;4.10;99.90;;;;;;5102506;28;19959;-78
2022/03/01 09:13:55;;;;;;;;;;;4.10;99.90;;;;;;5097743;28;19923;-78
2022/03/01 09:16:21;;;;;;;;;;;4.20;99.90;;;;;;5100981;28;19924;-78
2022/03/01 09:18:48;;;;;;;;;;;4.30;99.90;;;;;;5094112;28;19928;-79
2022/03/01 09:21:14;;;;;;;;;;;4.30;99.90;;;;;;5098189;28;19932;-80
2022/03/01 09:23:41;;;;;;;;;;;4.40;99.90;;;;;;5098100;28;19924;-79
2022/03/01 09:26:07;;;;;;;;;;;4.40;99.90;;;;;;5095859;28;20323;-79
2022/03/01 09:28:34;;;;;;;;;;;4.50;99.90;;;;;;5098983;28;20284;-79
2022/03/01 09:31:00;;;;;;;;;;;4.60;99.90;;;;;;5109133;28;20252;-79
2022/03/01 09:33:27;;;;;;;;;;;4.70;99.90;;;;;;5106430;28;20272;-79
2022/03/01 09:35:53;;;;;;;;;;;4.70;99.90;;;;;;5105340;27;19924;-79
2022/03/01 09:38:20;;;;;;;;;;;4.80;99.90;;;;;;5098039;27;20261;-77
2022/03/01 09:40:47;;;;;;;;;;;4.80;99.90;;;;;;5096554;28;20360;-81
2022/03/01 09:43:13;;;;;;;;;;;4.90;99.90;;;;;;5095952;28;19935;-78
2022/03/01 09:45:40;;;;;;;;;;;4.90;99.90;;;;;;5096415;28;21190;-78
2022/03/01 09:48:06;;;;;;;;;;;5.00;99.90;;;;;;5093678;28;20287;-78
2022/03/01 09:50:33;;;;;;;;;;;5.10;99.90;;;;;;5096328;28;20367;-78
2022/03/01 09:53:00;;;;;;;;;;;5.20;99.90;;;;;;5093867;28;20260;-79
2022/03/01 09:55:26;;;;;;;;;;;5.20;99.90;;;;;;5096083;28;19924;-77
2022/03/01 09:57:53;;;;;;;;;;;5.30;99.90;;;;;;5101098;28;19924;-78
2022/03/01 10:00:19;;;;;;;;;;;5.40;99.90;;;;;;5092182;28;19939;-78
2022/03/01 10:02:46;;;;;;;;;;;5.40;99.90;;;;;;5096193;28;19927;-81
2022/03/01 10:05:12;;;;;;;;;;;5.50;99.90;;;;;;5093916;28;19928;-80
2022/03/01 10:07:39;;;;;;;;;;;5.50;99.90;;;;;;5092465;28;19932;-78
2022/03/01 10:10:06;;;;;;;;;;;5.60;99.90;;;;;;5092490;28;19977;-79
2022/03/01 10:12:32;;;;;;;;;;;5.60;99.90;;;;;;5103799;28;20426;-79
2022/03/01 10:14:59;;;;;;;;;;;5.50;99.90;;;;;;5101830;28;19935;-79
2022/03/01 10:17:26;;;;;;;;;;;5.60;99.90;;;;;;5101293;28;19928;-79
2022/03/01 10:19:52;;;;;;;;;;;5.70;99.90;;;;;;5093908;28;19935;-79
2022/03/01 10:22:19;;;;;;;;;;;5.70;99.90;;;;;;5097371;28;20287;-79
2022/03/01 10:24:45;;;;;;;;;;;5.80;99.90;;;;;;5099139;28;20394;-79
2022/03/01 10:27:12;;;;;;;;;;;5.80;99.90;;;;;;5102100;28;20017;-79
2022/03/01 10:29:39;;;;;;;;;;;5.90;99.90;;;;;;5101715;28;20121;-79
2022/03/01 10:32:05;;;;;;;;;;;5.90;99.90;;;;;;5092236;28;19928;-79
2022/03/01 10:34:32;;;;;;;;;;;5.90;99.90;;;;;;5098110;28;20003;-79
2022/03/01 10:36:59;;;;;;;;;;;5.90;99.90;;;;;;5089813;28;19928;-78
2022/03/01 10:39:26;;;;;;;;;;;5.90;99.90;;;;;;5094209;28;19962;-79
2022/03/01 10:41:52;;;;;;;;;;;6.00;99.90;;;;;;5100836;28;19928;-79
2022/03/01 10:44:19;;;;;;;;;;;6.00;99.90;;;;;;5090130;28;20018;-79
2022/03/01 10:46:46;;;;;;;;;;;6.10;99.90;;;;;;5094499;28;20414;-79
2022/03/01 10:49:13;;;;;;;;;;;6.20;99.90;;;;;;5093833;28;19927;-79
2022/03/01 10:51:39;;;;;;;;;;;6.20;99.90;;;;;;5098206;28;19935;-79
2022/03/01 10:54:06;;;;;;;;;;;6.30;99.90;;;;;;5099653;28;19935;-77
2022/03/01 10:56:32;;;;;;;;;;;6.40;99.90;;;;;;5093820;28;19923;-79
2022/03/01 10:58:59;;;;;;;;;;;6.50;99.90;;;;;;5099034;28;20291;-79
2022/03/01 11:01:27;;;;;;;;;;;6.60;99.90;;;;;;5089573;28;19927;-79
2022/03/01 11:03:53;;;;;;;;;;;6.80;99.90;;;;;;5093377;28;20011;-79
2022/03/01 11:06:20;;;;;;;;;;;7.00;99.90;;;;;;5102231;28;19931;-79
2022/03/01 11:08:47;;;;;;;;;;;7.10;99.90;;;;;;5096436;28;19932;-79
2022/03/01 11:11:13;;;;;;;;;;;7.30;99.90;;;;;;5088650;28;19924;-81
2022/03/01 11:13:40;;;;;;;;;;;7.50;99.90;;;;;;5093679;28;19938;-85
2022/03/01 11:16:06;;;;;;;;;;;7.70;99.90;;;;;;5125426;27;19977;-79
2022/03/01 11:18:33;;;;;;;;;;;7.80;99.90;;;;;;5092061;28;19924;-80
2022/03/01 11:20:59;;;;;;;;;;;7.90;99.90;;;;;;5089771;28;19930;-78
2022/03/01 11:23:26;;;;;;;;;;;7.80;99.90;;;;;;5107461;27;19928;-80
2022/03/01 11:25:53;;;;;;;;;;;7.90;99.90;;;;;;5101602;28;19934;-80
2022/03/01 11:28:22;;;;;;;;;;;7.90;99.90;;;;;;5103441;28;19932;-80
2022/03/01 11:30:51;;;;;;;;;;;7.90;99.90;;;;;;5102018;28;19927;-80
2022/03/01 11:33:18;;;;;;;;;;;8.00;99.90;;;;;;5090531;28;21215;-80
2022/03/01 11:35:44;;;;;;;;;;;8.10;99.90;;;;;;5090853;28;19928;-81
2022/03/01 11:38:11;;;;;;;;;;;8.10;99.90;;;;;;5087763;28;19931;-80
2022/03/01 11:40:37;;;;;;;;;;;8.10;99.90;;;;;;5103818;28;19931;-80
2022/03/01 11:43:04;;;;;;;;;;;8.20;99.90;;;;;;5100586;28;19936;-80
2022/03/01 11:45:30;;;;;;;;;;;8.20;99.90;;;;;;5100304;28;19928;-80
2022/03/01 11:47:57;;;;;;;;;;;8.20;99.90;;;;;;5091315;28;19935;-80
2022/03/01 11:50:24;;;;;;;;;;;8.20;99.90;;;;;;5090966;28;19924;-82
2022/03/01 11:52:51;;;;;;;;;;;8.20;99.90;;;;;;5090638;28;19928;-80
2022/03/01 11:55:18;;;;;;;;;;;8.20;99.90;;;;;;5097747;28;19931;-80
2022/03/01 11:57:44;;;;;;;;;;;8.10;99.90;;;;;;5092387;28;19935;-79
2022/03/01 12:00:11;;;;;;;;;;;8.20;99.90;;;;;;5090416;28;19931;-80
2022/03/01 12:02:37;;;;;;;;;;;8.20;99.90;;;;;;5095890;28;19924;-80
2022/03/01 12:05:04;;;;;;;;;;;8.20;99.90;;;;;;5103097;28;19927;-80
2022/03/01 12:07:31;;;;;;;;;;;8.20;99.90;;;;;;5096540;28;19928;-78
2022/03/01 12:09:58;;;;;;;;;;;8.20;99.90;;;;;;5103522;28;19935;-80
2022/03/01 12:12:24;;;;;;;;;;;8.30;99.90;;;;;;5096083;28;19924;-80
2022/03/01 12:14:51;;;;;;;;;;;8.30;99.90;;;;;;5102275;28;19924;-78
2022/03/01 12:17:18;;;;;;;;;;;8.30;99.90;;;;;;5092122;28;19928;-80
2022/03/01 12:19:44;;;;;;;;;;;8.30;99.90;;;;;;5094668;28;20375;-80
2022/03/01 12:22:11;;;;;;;;;;;8.30;99.90;;;;;;5092264;28;20371;-80
2022/03/01 12:24:37;;;;;;;;;;;8.30;99.90;;;;;;5087999;28;19928;-80
2022/03/01 12:27:04;;;;;;;;;;;8.30;99.90;;;;;;5101586;28;20391;-80
2022/03/01 12:29:30;;;;;;;;;;;8.30;99.90;;;;;;5096399;28;19931;-80
2022/03/01 12:31:57;;;;;;;;;;;8.30;99.90;;;;;;5092327;28;20027;-83
2022/03/01 12:34:24;;;;;;;;;;;8.30;99.90;;;;;;5086612;28;19935;-80
2022/03/01 12:36:50;;;;;;;;;;;8.30;99.90;;;;;;5086820;28;19989;-79
2022/03/01 12:39:17;;;;;;;;;;;8.30;99.90;;;;;;5093878;28;19995;-78
2022/03/01 12:41:43;;;;;;;;;;;8.40;99.90;;;;;;5088049;28;19924;-78
2022/03/01 12:44:10;;;;;;;;;;;8.30;99.90;;;;;;5095455;28;19927;-79
2022/03/01 12:46:36;;;;;;;;;;;8.30;99.90;;;;;;5097422;28;19928;-79
2022/03/01 12:49:03;;;;;;;;;;;8.30;99.90;;;;;;5101381;28;19935;-78
2022/03/01 12:51:30;;;;;;;;;;;8.30;99.90;;;;;;5099941;28;19935;-78
2022/03/01 12:53:57;;;;;;;;;;;8.40;99.90;;;;;;5101391;28;19980;-80
2022/03/01 12:56:23;;;;;;;;;;;8.40;99.90;;;;;;5100235;28;19974;-78
2022/03/01 12:58:50;;;;;;;;;;;8.30;99.90;;;;;;5109733;28;19954;-78
2022/03/01 13:01:16;;;;;;;;;;;8.30;99.90;;;;;;5098342;28;19978;-79
2022/03/01 13:03:44;;;;;;;;;;;8.40;99.90;;;;;;5098894;28;19934;-78
2022/03/01 13:06:11;;;;;;;;;;;8.40;99.90;;;;;;5094652;28;19928;-78
2022/03/01 13:08:37;;;;;;;;;;;8.40;99.90;;;;;;5096769;28;19928;-78
2022/03/01 13:11:04;;;;;;;;;;;8.40;99.90;;;;;;5099426;28;19928;-79
2022/03/01 13:13:31;;;;;;;;;;;8.40;99.90;;;;;;5101576;28;19923;-78
2022/03/01 13:15:58;;;;;;;;;;;8.50;99.90;;;;;;5090178;28;19981;-78
2022/03/01 13:18:24;;;;;;;;;;;8.50;99.90;;;;;;5098320;28;19928;-79
2022/03/01 13:20:51;;;;;;;;;;;8.50;99.90;;;;;;5096367;28;19927;-79
2022/03/01 13:23:19;;;;;;;;;;;8.50;99.90;;;;;;5090612;28;19935;-78
2022/03/01 13:25:46;;;;;;;;;;;8.50;99.90;;;;;;5103453;28;20063;-78
2022/03/01 13:28:12;;;;;;;;;;;8.50;99.90;;;;;;5093172;28;19928;-78
2022/03/01 13:30:39;;;;;;;;;;;8.50;99.90;;;;;;5106919;28;20650;-80
2022/03/01 13:33:06;;;;;;;;;;;8.50;99.90;;;;;;5096680;28;20379;-79
2022/03/01 13:35:32;;;;;;;;;;;8.40;99.90;;;;;;5096274;28;20417;-79
2022/03/01 13:38:00;;;;;;;;;;;8.50;99.90;;;;;;5100606;28;19935;-79
2022/03/01 13:40:26;;;;;;;;;;;8.50;99.90;;;;;;5093114;28;19928;-78
2022/03/01 13:42:53;;;;;;;;;;;8.50;99.90;;;;;;5090715;28;19932;-79
2022/03/01 13:45:19;;;;;;;;;;;8.50;99.90;;;;;;5090206;28;19927;-79
2022/03/01 13:47:46;;;;;;;;;;;8.50;99.90;;;;;;5092201;28;19927;-79
2022/03/01 13:50:12;;;;;;;;;;;8.40;99.90;;;;;;5090313;28;19924;-79
2022/03/01 13:52:39;;;;;;;;;;;8.40;99.90;;;;;;5091800;28;19951;-78
2022/03/01 13:55:05;;;;;;;;;;;8.40;99.90;;;;;;5093798;28;19928;-82
2022/03/01 13:57:32;;;;;;;;;;;8.50;99.90;;;;;;5094959;28;19936;-79
2022/03/01 13:59:58;;;;;;;;;;;8.50;99.90;;;;;;5091415;28;19951;-82
2022/03/01 14:02:25;;;;;;;;;;;8.50;99.90;;;;;;5088808;28;19985;-79
2022/03/01 14:04:51;;;;;;;;;;;8.50;99.90;;;;;;5098088;28;19923;-79
2022/03/01 14:07:18;;;;;;;;;;;8.50;99.90;;;;;;5091368;28;19945;-79
2022/03/01 14:09:45;;;;;;;;;;;8.50;99.90;;;;;;5092132;28;19932;-76
2022/03/01 14:12:11;;;;;;;;;;;8.50;99.90;;;;;;5099421;28;19931;-79
2022/03/01 14:14:38;;;;;;;;;;;8.60;99.90;;;;;;5092573;28;19935;-80
2022/03/01 14:17:06;;;;;;;;;;;8.70;99.90;;;;;;5099233;28;19927;-82
2022/03/01 14:19:32;;;;;;;;;;;8.60;99.90;;;;;;5101075;28;19932;-80
2022/03/01 14:21:59;;;;;;;;;;;8.70;99.90;;;;;;5093567;28;19935;-79
2022/03/01 14:24:26;;;;;;;;;;;8.70;99.90;;;;;;5096328;28;19920;-79
2022/03/01 14:26:52;;;;;;;;;;;8.80;99.90;;;;;;5101391;28;20040;-80
2022/03/01 14:29:19;;;;;;;;;;;8.70;99.90;;;;;;5087754;28;19992;-80